Fort Polk, LA

1:15 AM CDT on August 25, 2016 (GMT -0500)
Polk Army Air Field | | Change Station

Elev 328 ft 31.04 °N, 93.19 °W | Updated 17 minutes ago

Overcast
Overcast
78 °F
Feels Like 78 °F
N
2
Wind Variable Wind from NNW

Today
High -- | Low -- °F
--% Chance of Precip.
Yesterday
High -- | Low -- °F
Precip. -- in
Pressure 30.09 in
Visibility 10.0 miles
Clouds Overcast 24000 ft
Dew Point 75 °F
Humidity 91%
Rainfall 0.00 in
Snow Depth Not available.
6:45 AM 7:43 PM
Waning Gibbous, 49% visible
METAR KPOE 250558Z AUTO 34002KT 10SM OVC240 26/24 A3009 RMK AO2 SLP188 T02550239 10325 20255 403380239 55001
Pressure 30.09 in
Visibility 10.0 miles
Clouds Overcast 24000 ft
Dew Point 75 °F
Humidity 91%
Rainfall 0.00 in
Snow Depth Not available.
6:45 AM 7:43 PM
Waning Gibbous, 49% visible
METAR KPOE 250558Z AUTO 34002KT 10SM OVC240 26/24 A3009 RMK AO2 SLP188 T02550239 10325 20255 403380239 55001

10-Day Weather Forecast

Almanac

Astronomy

Aug. 25, 2016 Rise Set
Actual Time
Civil Twilight
Nautical Twilight
Astronomical Twilight
Moon
Length of Visible Light
Length of Day
Tomorrow will be .
, % of the Moon is Illuminated

Today's Extremes

State Highs State Lows

Community

WunderPhotos

Upload Photos

1,934,803 photos uploaded!

WunderBlog® & News

Nearby

Air Quality

  Air Quality AQ Index Pollutant
Not available.

Snow Depth

Station Depth Elevation

Earthquake Activity

City Distance Mag. Time & Date
Minimum magnitude displayed is 2.5.

Coastal Water Temperatures

Place Temperature

Stations

Nearby Weather Stations

Station Location Temp. Windchill Dew Point Humidity Wind Precip. Elev Updated Type
                   

Watches & Warnings

There are currently no watches in effect.